createdAt,value
2022-11-06T00:02:40.464Z,5.86
2022-11-06T00:08:28.838Z,5.88
2022-11-06T00:11:04.826Z,5.87
2022-11-06T00:13:39.146Z,5.80
2022-11-06T00:16:10.491Z,5.77
2022-11-06T00:18:38.286Z,5.76
2022-11-06T00:21:20.142Z,5.73
2022-11-06T00:23:47.611Z,5.72
2022-11-06T00:26:17.857Z,5.72
2022-11-06T00:28:46.150Z,5.67
2022-11-06T00:31:23.739Z,5.67
2022-11-06T00:33:51.134Z,5.66
2022-11-06T00:37:17.495Z,5.64
2022-11-06T00:48:04.050Z,5.55
2022-11-06T00:54:52.269Z,5.51
2022-11-06T00:57:39.020Z,5.49
2022-11-06T01:00:09.086Z,5.55
2022-11-06T01:03:05.351Z,5.53
2022-11-06T01:05:37.534Z,5.51
2022-11-06T01:12:12.919Z,5.52
2022-11-06T01:14:50.716Z,5.57
2022-11-06T01:17:31.006Z,5.51
2022-11-06T01:20:00.737Z,5.55
2022-11-06T01:22:59.541Z,5.53
2022-11-06T01:25:32.823Z,5.51
2022-11-06T01:32:10.938Z,5.43
2022-11-06T01:34:37.780Z,5.47
2022-11-06T01:37:04.561Z,5.46
2022-11-06T01:39:31.480Z,5.44
2022-11-06T01:41:58.459Z,5.44
2022-11-06T01:44:43.605Z,5.39
2022-11-06T01:47:28.000Z,5.43
2022-11-06T01:50:01.087Z,5.43
2022-11-06T01:52:31.482Z,5.46
2022-11-06T01:55:20.201Z,5.43
2022-11-06T01:57:47.686Z,5.41
2022-11-06T02:00:14.682Z,5.42
2022-11-06T02:02:42.072Z,5.42
2022-11-06T02:05:09.299Z,5.40
2022-11-06T02:07:39.643Z,5.39
2022-11-06T02:10:09.971Z,5.37
2022-11-06T03:03:20.086Z,5.14
2022-11-06T03:10:02.887Z,5.21
2022-11-06T03:13:19.227Z,5.16
2022-11-06T03:15:58.209Z,5.20
2022-11-06T03:19:30.778Z,5.20
2022-11-06T03:40:39.105Z,4.99
2022-11-06T03:43:54.505Z,4.95
2022-11-06T05:41:02.067Z,4.68
2022-11-06T05:43:28.700Z,4.81
2022-11-06T05:45:55.415Z,4.67
2022-11-06T05:48:22.211Z,4.71
2022-11-06T05:50:48.842Z,4.78
2022-11-06T05:53:16.637Z,4.76
2022-11-06T05:55:45.914Z,4.75
2022-11-06T05:58:13.444Z,4.73
2022-11-06T06:00:40.486Z,4.70
2022-11-06T06:03:14.955Z,4.67
2022-11-06T06:05:46.091Z,4.64
2022-11-06T06:19:27.181Z,4.53
2022-11-06T06:22:19.612Z,4.52
2022-11-06T06:24:55.794Z,4.54
2022-11-06T06:27:27.710Z,4.53
2022-11-06T06:29:57.136Z,4.51
2022-11-06T06:32:26.145Z,4.50
2022-11-06T06:34:52.883Z,4.54
2022-11-06T06:37:20.376Z,4.53
2022-11-06T06:39:47.476Z,4.49
2022-11-06T06:42:14.537Z,4.48
2022-11-06T06:44:51.031Z,4.46
2022-11-06T06:53:29.418Z,4.48
2022-11-06T06:55:58.626Z,4.53
2022-11-06T06:58:25.499Z,4.59
2022-11-06T07:00:52.633Z,4.57
2022-11-06T07:03:19.378Z,4.81
2022-11-06T07:05:48.570Z,4.77
2022-11-06T07:08:15.694Z,4.75
2022-11-06T07:10:42.560Z,4.79
2022-11-06T07:13:09.253Z,4.81
2022-11-06T07:15:35.945Z,4.82
2022-11-06T07:18:04.115Z,4.83
2022-11-06T07:20:31.032Z,4.87
2022-11-06T07:22:58.425Z,4.91
2022-11-06T07:25:25.846Z,4.96
2022-11-06T07:27:52.493Z,4.99
2022-11-06T07:30:19.166Z,5.00
2022-11-06T07:32:54.927Z,5.06
2022-11-06T07:35:21.583Z,5.11
2022-11-06T07:37:48.825Z,5.18
2022-11-06T07:40:15.577Z,5.25
2022-11-06T07:42:43.624Z,5.29
2022-11-06T07:45:14.806Z,5.29
2022-11-06T07:47:41.478Z,5.28
2022-11-06T07:50:08.413Z,5.31
2022-11-06T07:52:35.287Z,5.38
2022-11-06T07:55:02.040Z,5.35
2022-11-06T07:57:28.746Z,5.40
2022-11-06T07:59:55.423Z,5.42
2022-11-06T08:02:22.203Z,5.44
2022-11-06T08:04:48.917Z,5.49
2022-11-06T08:07:15.807Z,5.54
2022-11-06T08:09:42.488Z,5.55
2022-11-06T08:12:09.223Z,5.56
2022-11-06T08:14:41.211Z,5.62
2022-11-06T08:23:40.128Z,5.75
2022-11-06T08:34:06.247Z,5.86
2022-11-06T08:37:56.870Z,5.91
2022-11-06T08:48:48.870Z,6.13
2022-11-06T08:51:38.634Z,6.21
2022-11-06T08:54:23.195Z,6.25
2022-11-06T08:57:51.520Z,6.28
2022-11-06T09:06:38.284Z,6.43
2022-11-06T09:09:11.256Z,6.46
2022-11-06T09:11:37.970Z,6.52
2022-11-06T09:14:06.133Z,6.54
2022-11-06T09:23:59.017Z,6.63
2022-11-06T09:27:10.243Z,6.70
2022-11-06T09:37:03.041Z,6.81
2022-11-06T09:40:09.132Z,6.85
2022-11-06T09:42:57.377Z,6.92
2022-11-06T09:45:41.213Z,6.96
2022-11-06T09:48:10.721Z,7.06
2022-11-06T09:55:07.766Z,7.18
2022-11-06T09:57:57.873Z,7.25
2022-11-06T10:00:25.443Z,7.28
2022-11-06T10:03:06.861Z,7.35
2022-11-06T10:05:36.436Z,7.53
2022-11-06T10:08:24.416Z,7.57
2022-11-06T10:11:00.380Z,7.64
2022-11-06T10:14:06.931Z,7.65
2022-11-06T10:17:02.047Z,7.64
2022-11-06T10:19:41.505Z,7.67
2022-11-06T10:22:08.177Z,7.74
2022-11-06T10:24:51.462Z,7.79
2022-11-06T10:30:21.090Z,7.93
2022-11-06T10:40:55.527Z,8.15
2022-11-06T10:43:34.566Z,8.18
2022-11-06T10:46:15.210Z,8.21
2022-11-06T10:49:27.046Z,8.27
2022-11-06T10:52:46.279Z,8.32
2022-11-06T10:55:35.426Z,8.43
2022-11-06T10:58:05.234Z,8.55
2022-11-06T11:00:32.952Z,8.59
2022-11-06T11:03:05.026Z,8.61
2022-11-06T11:05:43.727Z,8.68
2022-11-06T11:08:29.041Z,8.77
2022-11-06T11:11:16.313Z,8.80
2022-11-06T11:13:46.789Z,8.90
2022-11-06T11:16:17.394Z,8.94
2022-11-06T11:18:45.624Z,8.96
2022-11-06T11:21:18.972Z,8.99
2022-11-06T11:24:01.719Z,9.08
2022-11-06T11:34:28.592Z,9.16
2022-11-06T11:40:36.244Z,9.24
2022-11-06T11:50:16.904Z,9.47
2022-11-06T11:53:12.493Z,9.53
2022-11-06T11:57:04.886Z,9.54
2022-11-06T12:19:36.660Z,9.95
2022-11-06T12:42:42.932Z,10.39
2022-11-06T13:07:59.887Z,10.55
2022-11-06T13:11:04.114Z,10.79
2022-11-06T13:14:27.571Z,10.80
2022-11-06T13:17:14.709Z,10.77
2022-11-06T13:19:49.404Z,10.87
2022-11-06T13:22:19.339Z,10.87
2022-11-06T13:25:01.265Z,10.87
2022-11-06T13:27:34.276Z,10.85
2022-11-06T13:30:13.409Z,10.88
2022-11-06T13:32:41.359Z,10.85
2022-11-06T13:35:17.081Z,10.90
2022-11-06T13:37:46.677Z,10.88
2022-11-06T13:40:22.031Z,10.88
2022-11-06T13:42:54.242Z,10.97
2022-11-06T13:45:21.980Z,10.91
2022-11-06T13:48:00.786Z,10.95
2022-11-06T13:50:36.116Z,11.00
2022-11-06T13:53:14.895Z,11.04
2022-11-06T13:56:04.777Z,11.11
2022-11-06T13:58:49.525Z,11.12
2022-11-06T14:01:28.499Z,11.06
2022-11-06T14:04:02.608Z,11.16
2022-11-06T14:06:31.740Z,11.26
2022-11-06T14:09:22.932Z,11.18
2022-11-06T14:11:55.422Z,11.16
2022-11-06T14:14:22.050Z,11.13
2022-11-06T14:17:16.592Z,11.09
2022-11-06T14:20:02.214Z,11.12
2022-11-06T14:22:34.035Z,11.23
2022-11-06T14:25:02.386Z,11.33
2022-11-06T14:27:29.283Z,11.44
2022-11-06T14:30:18.527Z,11.55
2022-11-06T14:32:47.938Z,11.49
2022-11-06T14:35:29.940Z,11.37
2022-11-06T14:38:19.387Z,11.32
2022-11-06T14:40:46.052Z,11.17
2022-11-06T14:43:22.996Z,10.97
2022-11-06T14:45:51.709Z,10.78
2022-11-06T14:48:26.860Z,10.58
2022-11-06T14:50:53.604Z,10.45
2022-11-06T14:53:23.582Z,10.37
2022-11-06T14:55:59.618Z,10.20
2022-11-06T14:58:32.932Z,10.13
2022-11-06T15:01:13.746Z,10.02
2022-11-06T15:03:53.673Z,9.83
2022-11-06T15:06:29.248Z,9.81
2022-11-06T15:08:57.640Z,9.77
2022-11-06T15:11:30.254Z,9.74
2022-11-06T15:14:16.892Z,9.61
2022-11-06T15:16:52.360Z,9.56
2022-11-06T15:19:26.003Z,9.51
2022-11-06T15:22:17.655Z,9.44
2022-11-06T15:24:49.435Z,9.38
2022-11-06T15:27:18.893Z,9.31
2022-11-06T15:29:48.200Z,9.27
2022-11-06T15:32:21.112Z,9.21
2022-11-06T15:35:01.900Z,9.15
2022-11-06T15:37:36.460Z,9.09
2022-11-06T15:40:04.132Z,9.05
2022-11-06T15:42:35.720Z,9.04
2022-11-06T15:45:08.474Z,9.00
2022-11-06T15:47:37.801Z,8.95
2022-11-06T15:50:19.625Z,8.89
2022-11-06T15:52:47.413Z,8.88
2022-11-06T15:55:32.248Z,8.79
2022-11-06T15:58:18.738Z,8.74
2022-11-06T16:00:46.107Z,8.70
2022-11-06T16:03:15.860Z,8.67
2022-11-06T16:05:43.565Z,8.64
2022-11-06T16:08:18.635Z,8.58
2022-11-06T16:10:48.294Z,8.55
2022-11-06T16:13:17.250Z,8.52
2022-11-06T16:15:54.198Z,8.46
2022-11-06T16:18:31.556Z,8.41
2022-11-06T16:21:13.591Z,8.38
2022-11-06T16:23:44.960Z,8.31
2022-11-06T16:26:14.805Z,8.24
2022-11-06T16:28:47.381Z,8.22
2022-11-06T16:31:16.890Z,8.27
2022-11-06T16:33:56.119Z,8.21
2022-11-06T16:36:23.415Z,8.18
2022-11-06T16:38:51.861Z,8.19
2022-11-06T16:41:57.149Z,8.15
2022-11-06T16:44:31.789Z,8.12
2022-11-06T16:47:04.773Z,8.13
2022-11-06T16:49:33.461Z,8.12
2022-11-06T16:52:00.876Z,8.10
2022-11-06T16:54:29.289Z,8.08
2022-11-06T16:56:55.986Z,8.14
2022-11-06T16:59:24.480Z,8.10
2022-11-06T17:01:51.596Z,8.06
2022-11-06T17:04:23.670Z,8.04
2022-11-06T17:06:51.329Z,8.02
2022-11-06T17:09:32.416Z,7.94
2022-11-06T17:12:02.300Z,7.94
2022-11-06T17:14:29.213Z,7.97
2022-11-06T17:16:58.383Z,7.96
2022-11-06T17:19:26.052Z,7.92
2022-11-06T17:21:53.156Z,7.92
2022-11-06T17:24:36.897Z,7.96
2022-11-06T17:27:04.572Z,7.87
2022-11-06T17:29:33.640Z,7.81
2022-11-06T17:32:01.376Z,7.81
2022-11-06T17:34:28.159Z,7.84
2022-11-06T17:36:54.857Z,7.77
2022-11-06T17:39:22.673Z,7.83
2022-11-06T17:41:49.379Z,7.78
2022-11-06T17:44:17.020Z,7.75
2022-11-06T17:46:45.727Z,7.76
2022-11-06T17:49:17.531Z,7.73
2022-11-06T17:51:53.296Z,7.70
2022-11-06T17:54:26.266Z,7.71
2022-11-06T17:56:54.200Z,7.67
2022-11-06T17:59:23.982Z,7.68
2022-11-06T18:01:51.323Z,7.70
2022-11-06T18:04:19.549Z,7.68
2022-11-06T18:06:47.565Z,7.65
2022-11-06T18:09:15.223Z,7.60
2022-11-06T18:11:42.526Z,7.59
2022-11-06T18:14:10.124Z,7.55
2022-11-06T18:16:43.393Z,7.50
2022-11-06T18:19:12.692Z,7.47
2022-11-06T18:21:39.321Z,7.42
2022-11-06T18:24:06.358Z,7.43
2022-11-06T18:26:33.084Z,7.40
2022-11-06T18:28:59.806Z,7.41
2022-11-06T18:31:26.498Z,7.43
2022-11-06T18:33:53.220Z,7.47
2022-11-06T18:36:20.175Z,7.48
2022-11-06T18:38:47.967Z,7.42
2022-11-06T18:41:16.900Z,7.45
2022-11-06T18:43:43.923Z,7.44
2022-11-06T18:46:16.017Z,7.47
2022-11-06T18:48:43.119Z,7.46
2022-11-06T18:51:27.529Z,7.46
2022-11-06T18:54:01.855Z,7.40
2022-11-06T18:56:28.557Z,7.39
2022-11-06T18:58:55.285Z,7.37
2022-11-06T19:01:23.522Z,7.31
2022-11-06T19:03:52.819Z,7.25
2022-11-06T19:06:20.568Z,7.28
2022-11-06T19:08:49.116Z,7.28
2022-11-06T19:11:16.927Z,7.29
2022-11-06T19:13:47.913Z,7.25
2022-11-06T19:16:14.995Z,7.25
2022-11-06T19:18:42.075Z,7.19
2022-11-06T19:21:11.015Z,7.18
2022-11-06T19:23:39.265Z,7.17
2022-11-06T19:26:30.429Z,7.16
2022-11-06T19:29:00.262Z,7.15
2022-11-06T19:31:30.358Z,7.24
2022-11-06T19:34:01.953Z,7.18
2022-11-06T19:36:29.530Z,7.09
2022-11-06T19:38:58.593Z,7.08
2022-11-06T19:41:26.313Z,7.11
2022-11-06T19:43:53.296Z,7.14
2022-11-06T19:46:25.020Z,7.06
2022-11-06T19:49:00.453Z,7.04
2022-11-06T19:51:28.176Z,7.00
2022-11-06T20:39:30.357Z,6.64
2022-11-06T20:41:59.770Z,6.65
2022-11-06T20:44:30.481Z,6.69
2022-11-06T21:10:33.845Z,6.58
2022-11-06T21:17:42.597Z,6.50
2022-11-06T21:24:08.918Z,6.61
2022-11-06T21:26:43.849Z,6.61
2022-11-06T21:37:35.574Z,6.53
2022-11-06T21:40:17.695Z,6.54
2022-11-06T21:43:10.280Z,6.59
2022-11-06T21:55:53.707Z,6.49
2022-11-06T22:05:49.298Z,6.49
2022-11-06T23:32:33.700Z,6.46
2022-11-06T23:35:46.640Z,6.47
2022-11-06T23:38:52.317Z,6.51
